sensor_id;sensor_type;location;lat;lon;timestamp;pressure;altitude;pressure_sealevel;temperature;humidity
80629;BME280;69983;42.370;-71.210;2023-06-22T00:01:34;102446.92;;;25.28;23.80
80629;BME280;69983;42.370;-71.210;2023-06-22T00:03:35;102448.07;;;24.92;24.36
80629;BME280;69983;42.370;-71.210;2023-06-22T00:05:35;102451.12;;;24.84;24.19
80629;BME280;69983;42.370;-71.210;2023-06-22T00:07:36;102450.63;;;24.46;24.31
80629;BME280;69983;42.370;-71.210;2023-06-22T00:09:36;102448.73;;;25.00;23.73
80629;BME280;69983;42.370;-71.210;2023-06-22T00:11:38;102450.20;;;24.47;23.94
80629;BME280;69983;42.370;-71.210;2023-06-22T00:13:38;102452.83;;;24.41;23.91
80629;BME280;69983;42.370;-71.210;2023-06-22T00:15:39;102449.74;;;24.76;23.93
80629;BME280;69983;42.370;-71.210;2023-06-22T00:17:38;102451.61;;;24.87;23.84
80629;BME280;69983;42.370;-71.210;2023-06-22T00:19:39;102453.43;;;24.77;24.15
80629;BME280;69983;42.370;-71.210;2023-06-22T00:21:40;102451.43;;;24.22;24.48
80629;BME280;69983;42.370;-71.210;2023-06-22T00:23:40;102451.84;;;24.73;23.93
80629;BME280;69983;42.370;-71.210;2023-06-22T00:25:41;102451.97;;;24.72;23.78
80629;BME280;69983;42.370;-71.210;2023-06-22T00:27:41;102449.93;;;24.50;23.84
80629;BME280;69983;42.370;-71.210;2023-06-22T00:29:41;102447.82;;;24.74;23.76
80629;BME280;69983;42.370;-71.210;2023-06-22T00:31:42;102451.92;;;24.62;23.98
80629;BME280;69983;42.370;-71.210;2023-06-22T00:33:42;102451.61;;;24.80;23.98
80629;BME280;69983;42.370;-71.210;2023-06-22T00:35:42;102454.96;;;24.76;24.07
80629;BME280;69983;42.370;-71.210;2023-06-22T00:37:43;102454.94;;;24.25;24.13
80629;BME280;69983;42.370;-71.210;2023-06-22T00:39:43;102453.80;;;24.40;24.19
80629;BME280;69983;42.370;-71.210;2023-06-22T00:41:44;102457.33;;;24.51;23.80
80629;BME280;69983;42.370;-71.210;2023-06-22T00:43:45;102459.14;;;24.17;23.91
80629;BME280;69983;42.370;-71.210;2023-06-22T00:45:44;102460.34;;;24.41;23.77
80629;BME280;69983;42.370;-71.210;2023-06-22T00:47:45;102465.43;;;24.52;23.88
80629;BME280;69983;42.370;-71.210;2023-06-22T00:49:49;102469.76;;;24.59;24.23
80629;BME280;69983;42.370;-71.210;2023-06-22T00:51:45;102472.32;;;25.04;23.92
80629;BME280;69983;42.370;-71.210;2023-06-22T00:53:46;102470.20;;;25.44;23.70
80629;BME280;69983;42.370;-71.210;2023-06-22T00:55:46;102473.29;;;24.85;23.94
80629;BME280;69983;42.370;-71.210;2023-06-22T00:57:47;102473.59;;;24.97;23.76
80629;BME280;69983;42.370;-71.210;2023-06-22T00:59:48;102476.00;;;24.66;23.80
80629;BME280;69983;42.370;-71.210;2023-06-22T01:01:47;102476.19;;;24.39;23.87
80629;BME280;69983;42.370;-71.210;2023-06-22T01:03:47;102476.07;;;24.20;24.09
80629;BME280;69983;42.370;-71.210;2023-06-22T01:05:50;102481.22;;;24.64;23.87
80629;BME280;69983;42.370;-71.210;2023-06-22T01:07:59;102479.85;;;25.03;23.55
80629;BME280;69983;42.370;-71.210;2023-06-22T01:09:54;102483.39;;;25.14;23.61
80629;BME280;69983;42.370;-71.210;2023-06-22T01:11:52;102484.34;;;25.48;23.50
80629;BME280;69983;42.370;-71.210;2023-06-22T01:13:54;102485.67;;;25.11;23.71
80629;BME280;69983;42.370;-71.210;2023-06-22T01:15:53;102484.44;;;25.32;23.45
80629;BME280;69983;42.370;-71.210;2023-06-22T01:17:52;102484.85;;;24.50;23.71
80629;BME280;69983;42.370;-71.210;2023-06-22T01:19:53;102486.35;;;24.62;23.55
80629;BME280;69983;42.370;-71.210;2023-06-22T01:21:52;102487.90;;;24.41;23.85
80629;BME280;69983;42.370;-71.210;2023-06-22T01:23:58;102488.53;;;24.80;23.97
80629;BME280;69983;42.370;-71.210;2023-06-22T01:26:02;102490.88;;;25.13;23.77
80629;BME280;69983;42.370;-71.210;2023-06-22T01:27:58;102492.83;;;25.12;23.83
80629;BME280;69983;42.370;-71.210;2023-06-22T01:29:57;102493.34;;;24.25;23.70
80629;BME280;69983;42.370;-71.210;2023-06-22T01:31:55;102495.99;;;23.80;23.27
80629;BME280;69983;42.370;-71.210;2023-06-22T01:33:57;102493.99;;;24.33;22.61
80629;BME280;69983;42.370;-71.210;2023-06-22T01:35:55;102497.61;;;23.38;22.94
80629;BME280;69983;42.370;-71.210;2023-06-22T01:37:55;102495.10;;;24.22;22.22
80629;BME280;69983;42.370;-71.210;2023-06-22T01:39:56;102493.04;;;25.32;22.25
80629;BME280;69983;42.370;-71.210;2023-06-22T01:41:57;102490.23;;;25.76;22.62
80629;BME280;69983;42.370;-71.210;2023-06-22T01:43:56;102486.21;;;25.96;22.98
80629;BME280;69983;42.370;-71.210;2023-06-22T01:45:59;102489.61;;;25.19;23.54
80629;BME280;69983;42.370;-71.210;2023-06-22T01:47:57;102491.59;;;26.14;23.14
80629;BME280;69983;42.370;-71.210;2023-06-22T01:49:58;102495.24;;;25.43;23.41
80629;BME280;69983;42.370;-71.210;2023-06-22T01:51:58;102494.90;;;25.31;23.18
80629;BME280;69983;42.370;-71.210;2023-06-22T01:53:59;102497.68;;;25.18;23.27
80629;BME280;69983;42.370;-71.210;2023-06-22T01:55:59;102492.02;;;24.46;23.85
80629;BME280;69983;42.370;-71.210;2023-06-22T01:57:59;102486.00;;;25.46;23.44
80629;BME280;69983;42.370;-71.210;2023-06-22T02:00:03;102487.36;;;25.35;23.35
80629;BME280;69983;42.370;-71.210;2023-06-22T02:02:04;102488.64;;;25.32;23.58
80629;BME280;69983;42.370;-71.210;2023-06-22T02:04:05;102486.78;;;25.76;23.54
80629;BME280;69983;42.370;-71.210;2023-06-22T02:06:05;102486.20;;;25.42;23.70
80629;BME280;69983;42.370;-71.210;2023-06-22T02:08:08;102479.00;;;25.94;23.28
80629;BME280;69983;42.370;-71.210;2023-06-22T02:10:04;102481.71;;;25.26;23.46
80629;BME280;69983;42.370;-71.210;2023-06-22T02:12:05;102478.92;;;24.72;23.67
80629;BME280;69983;42.370;-71.210;2023-06-22T02:14:05;102475.62;;;24.52;23.48
80629;BME280;69983;42.370;-71.210;2023-06-22T02:16:04;102472.58;;;24.32;23.96
80629;BME280;69983;42.370;-71.210;2023-06-22T02:18:04;102467.36;;;24.81;23.93
80629;BME280;69983;42.370;-71.210;2023-06-22T02:20:05;102468.83;;;25.42;23.60
80629;BME280;69983;42.370;-71.210;2023-06-22T02:22:05;102468.88;;;24.76;24.28
80629;BME280;69983;42.370;-71.210;2023-06-22T02:24:06;102467.72;;;25.22;23.86
80629;BME280;69983;42.370;-71.210;2023-06-22T02:26:06;102465.53;;;25.38;23.87
80629;BME280;69983;42.370;-71.210;2023-06-22T02:28:07;102460.54;;;25.56;23.64
80629;BME280;69983;42.370;-71.210;2023-06-22T02:30:13;102461.42;;;25.43;23.70
80629;BME280;69983;42.370;-71.210;2023-06-22T02:32:08;102464.24;;;25.08;23.88
80629;BME280;69983;42.370;-71.210;2023-06-22T02:34:09;102466.44;;;24.79;23.97
80629;BME280;69983;42.370;-71.210;2023-06-22T02:36:09;102461.80;;;24.67;23.86
80629;BME280;69983;42.370;-71.210;2023-06-22T02:38:09;102461.29;;;24.69;23.55
80629;BME280;69983;42.370;-71.210;2023-06-22T02:40:10;102458.12;;;24.95;23.76
80629;BME280;69983;42.370;-71.210;2023-06-22T02:42:10;102454.86;;;25.31;23.45
80629;BME280;69983;42.370;-71.210;2023-06-22T02:44:10;102456.62;;;25.43;23.47
80629;BME280;69983;42.370;-71.210;2023-06-22T02:46:11;102457.09;;;25.42;23.25
80629;BME280;69983;42.370;-71.210;2023-06-22T02:48:11;102453.68;;;25.62;23.37
80629;BME280;69983;42.370;-71.210;2023-06-22T02:50:12;102450.00;;;25.45;23.67
80629;BME280;69983;42.370;-71.210;2023-06-22T02:52:11;102448.94;;;25.72;23.16
80629;BME280;69983;42.370;-71.210;2023-06-22T02:54:12;102447.45;;;25.78;22.90
80629;BME280;69983;42.370;-71.210;2023-06-22T02:56:12;102444.49;;;25.49;23.00
80629;BME280;69983;42.370;-71.210;2023-06-22T02:58:13;102441.41;;;25.07;23.04
80629;BME280;69983;42.370;-71.210;2023-06-22T03:00:14;102438.36;;;25.03;23.34
80629;BME280;69983;42.370;-71.210;2023-06-22T03:02:13;102437.72;;;25.12;23.37
80629;BME280;69983;42.370;-71.210;2023-06-22T03:04:14;102437.74;;;25.39;23.15
80629;BME280;69983;42.370;-71.210;2023-06-22T03:06:14;102440.01;;;26.02;23.16
80629;BME280;69983;42.370;-71.210;2023-06-22T03:08:15;102435.80;;;26.03;23.09
80629;BME280;69983;42.370;-71.210;2023-06-22T03:10:16;102435.20;;;25.98;23.10
80629;BME280;69983;42.370;-71.210;2023-06-22T03:12:15;102437.54;;;25.87;23.26
80629;BME280;69983;42.370;-71.210;2023-06-22T03:14:16;102442.80;;;26.11;22.75
80629;BME280;69983;42.370;-71.210;2023-06-22T03:16:16;102445.20;;;25.71;22.84
80629;BME280;69983;42.370;-71.210;2023-06-22T03:18:16;102444.25;;;25.79;22.73
80629;BME280;69983;42.370;-71.210;2023-06-22T03:20:16;102447.08;;;25.22;22.94
80629;BME280;69983;42.370;-71.210;2023-06-22T03:22:17;102445.69;;;25.42;23.05
80629;BME280;69983;42.370;-71.210;2023-06-22T03:24:18;102443.69;;;26.01;22.73
80629;BME280;69983;42.370;-71.210;2023-06-22T03:26:19;102440.73;;;26.32;22.62
80629;BME280;69983;42.370;-71.210;2023-06-22T03:28:19;102437.49;;;25.77;22.93
80629;BME280;69983;42.370;-71.210;2023-06-22T03:30:19;102435.14;;;25.87;22.97
80629;BME280;69983;42.370;-71.210;2023-06-22T03:32:20;102430.48;;;26.43;22.80
80629;BME280;69983;42.370;-71.210;2023-06-22T03:34:20;102431.42;;;26.57;22.83
80629;BME280;69983;42.370;-71.210;2023-06-22T03:36:21;102436.17;;;26.75;22.76
80629;BME280;69983;42.370;-71.210;2023-06-22T03:38:22;102434.86;;;26.31;22.74
80629;BME280;69983;42.370;-71.210;2023-06-22T03:40:22;102435.90;;;26.33;22.63
80629;BME280;69983;42.370;-71.210;2023-06-22T03:42:23;102435.70;;;25.45;22.82
80629;BME280;69983;42.370;-71.210;2023-06-22T03:44:23;102435.94;;;24.86;23.21
80629;BME280;69983;42.370;-71.210;2023-06-22T03:46:23;102432.95;;;25.46;23.18
80629;BME280;69983;42.370;-71.210;2023-06-22T03:48:24;102430.92;;;25.72;23.07
80629;BME280;69983;42.370;-71.210;2023-06-22T03:50:25;102425.65;;;25.86;23.07
80629;BME280;69983;42.370;-71.210;2023-06-22T03:52:25;102425.61;;;25.83;23.00
80629;BME280;69983;42.370;-71.210;2023-06-22T03:54:26;102422.37;;;26.19;22.83
80629;BME280;69983;42.370;-71.210;2023-06-22T03:56:26;102419.95;;;26.07;22.80
80629;BME280;69983;42.370;-71.210;2023-06-22T03:58:27;102420.77;;;26.29;22.90
80629;BME280;69983;42.370;-71.210;2023-06-22T04:00:26;102419.73;;;26.66;22.89
80629;BME280;69983;42.370;-71.210;2023-06-22T04:02:27;102418.34;;;26.32;23.05
80629;BME280;69983;42.370;-71.210;2023-06-22T04:04:27;102417.25;;;26.07;23.11
80629;BME280;69983;42.370;-71.210;2023-06-22T04:06:27;102416.16;;;26.37;22.98
80629;BME280;69983;42.370;-71.210;2023-06-22T04:08:27;102411.49;;;26.38;22.91
80629;BME280;69983;42.370;-71.210;2023-06-22T04:10:27;102407.38;;;26.35;22.78
80629;BME280;69983;42.370;-71.210;2023-06-22T04:12:27;102403.37;;;25.52;22.70
80629;BME280;69983;42.370;-71.210;2023-06-22T04:14:27;102402.01;;;25.75;22.72
80629;BME280;69983;42.370;-71.210;2023-06-22T04:16:27;102402.17;;;24.87;23.29
80629;BME280;69983;42.370;-71.210;2023-06-22T04:18:28;102399.49;;;25.90;22.95
80629;BME280;69983;42.370;-71.210;2023-06-22T04:20:28;102398.87;;;26.01;22.83
80629;BME280;69983;42.370;-71.210;2023-06-22T04:22:29;102401.60;;;25.81;22.70
80629;BME280;69983;42.370;-71.210;2023-06-22T04:24:29;102401.47;;;26.39;22.73
80629;BME280;69983;42.370;-71.210;2023-06-22T04:26:30;102402.17;;;26.41;22.66
80629;BME280;69983;42.370;-71.210;2023-06-22T04:28:30;102401.13;;;26.26;22.85
80629;BME280;69983;42.370;-71.210;2023-06-22T04:30:33;102401.92;;;26.13;22.94
80629;BME280;69983;42.370;-71.210;2023-06-22T04:32:31;102401.66;;;25.88;22.61
80629;BME280;69983;42.370;-71.210;2023-06-22T04:34:32;102402.36;;;25.76;22.64
80629;BME280;69983;42.370;-71.210;2023-06-22T04:36:33;102401.68;;;25.54;22.47
80629;BME280;69983;42.370;-71.210;2023-06-22T04:38:33;102400.48;;;25.30;23.07
80629;BME280;69983;42.370;-71.210;2023-06-22T04:40:33;102399.64;;;25.84;22.77
80629;BME280;69983;42.370;-71.210;2023-06-22T04:42:37;102397.35;;;25.75;22.74
80629;BME280;69983;42.370;-71.210;2023-06-22T04:44:33;102396.22;;;26.05;22.82
80629;BME280;69983;42.370;-71.210;2023-06-22T04:46:34;102400.32;;;26.14;22.70
80629;BME280;69983;42.370;-71.210;2023-06-22T04:48:34;102403.88;;;26.54;22.66
80629;BME280;69983;42.370;-71.210;2023-06-22T04:50:34;102401.76;;;26.22;22.79
80629;BME280;69983;42.370;-71.210;2023-06-22T04:52:34;102402.32;;;26.48;22.51
80629;BME280;69983;42.370;-71.210;2023-06-22T04:54:35;102399.71;;;26.17;22.51
80629;BME280;69983;42.370;-71.210;2023-06-22T04:56:34;102400.53;;;25.94;22.25
80629;BME280;69983;42.370;-71.210;2023-06-22T04:58:34;102397.11;;;25.68;22.61
80629;BME280;69983;42.370;-71.210;2023-06-22T05:00:35;102393.29;;;26.10;22.68
80629;BME280;69983;42.370;-71.210;2023-06-22T05:02:35;102395.30;;;25.82;22.80
80629;BME280;69983;42.370;-71.210;2023-06-22T05:04:36;102394.71;;;25.76;23.00
80629;BME280;69983;42.370;-71.210;2023-06-22T05:06:36;102392.61;;;25.91;23.02
80629;BME280;69983;42.370;-71.210;2023-06-22T05:08:37;102391.91;;;26.16;22.93
80629;BME280;69983;42.370;-71.210;2023-06-22T05:10:38;102391.32;;;26.05;22.93
80629;BME280;69983;42.370;-71.210;2023-06-22T05:12:39;102392.44;;;25.71;23.16
80629;BME280;69983;42.370;-71.210;2023-06-22T05:14:39;102391.61;;;25.84;23.74
80629;BME280;69983;42.370;-71.210;2023-06-22T05:16:41;102394.19;;;25.49;25.54
80629;BME280;69983;42.370;-71.210;2023-06-22T05:18:40;102398.61;;;24.79;26.45
80629;BME280;69983;42.370;-71.210;2023-06-22T05:20:40;102397.17;;;25.15;26.65
80629;BME280;69983;42.370;-71.210;2023-06-22T05:22:41;102397.97;;;24.77;27.57
80629;BME280;69983;42.370;-71.210;2023-06-22T05:24:41;102396.41;;;24.67;28.24
80629;BME280;69983;42.370;-71.210;2023-06-22T05:26:41;102399.12;;;24.76;28.50
80629;BME280;69983;42.370;-71.210;2023-06-22T05:28:42;102401.52;;;24.42;28.74
80629;BME280;69983;42.370;-71.210;2023-06-22T05:30:43;102402.50;;;25.01;28.66
80629;BME280;69983;42.370;-71.210;2023-06-22T05:32:43;102400.78;;;24.71;28.99
80629;BME280;69983;42.370;-71.210;2023-06-22T05:34:43;102399.50;;;24.60;29.31
80629;BME280;69983;42.370;-71.210;2023-06-22T05:36:43;102393.49;;;24.55;29.58
80629;BME280;69983;42.370;-71.210;2023-06-22T05:38:44;102393.53;;;23.76;29.83
80629;BME280;69983;42.370;-71.210;2023-06-22T05:40:45;102394.00;;;23.42;29.73
80629;BME280;69983;42.370;-71.210;2023-06-22T05:42:46;102392.04;;;23.43;29.22
80629;BME280;69983;42.370;-71.210;2023-06-22T05:44:46;102388.40;;;23.06;29.89
80629;BME280;69983;42.370;-71.210;2023-06-22T05:46:47;102389.80;;;22.38;30.61
80629;BME280;69983;42.370;-71.210;2023-06-22T05:48:46;102387.69;;;23.76;29.62
80629;BME280;69983;42.370;-71.210;2023-06-22T05:50:47;102382.63;;;24.00;29.72
80629;BME280;69983;42.370;-71.210;2023-06-22T05:52:48;102381.08;;;23.60;30.36
80629;BME280;69983;42.370;-71.210;2023-06-22T05:54:49;102378.14;;;23.78;30.35
80629;BME280;69983;42.370;-71.210;2023-06-22T05:56:49;102380.05;;;24.20;30.34
80629;BME280;69983;42.370;-71.210;2023-06-22T05:58:50;102380.73;;;24.09;30.49
80629;BME280;69983;42.370;-71.210;2023-06-22T06:00:50;102384.45;;;24.03;30.76
80629;BME280;69983;42.370;-71.210;2023-06-22T06:02:51;102381.17;;;23.90;30.93
80629;BME280;69983;42.370;-71.210;2023-06-22T06:04:51;102376.96;;;24.27;30.59
80629;BME280;69983;42.370;-71.210;2023-06-22T06:06:52;102375.53;;;23.93;30.75
80629;BME280;69983;42.370;-71.210;2023-06-22T06:08:52;102369.44;;;23.00;30.89
80629;BME280;69983;42.370;-71.210;2023-06-22T06:10:53;102362.05;;;22.56;30.43
80629;BME280;69983;42.370;-71.210;2023-06-22T06:12:53;102365.79;;;22.03;31.19
80629;BME280;69983;42.370;-71.210;2023-06-22T06:14:53;102368.95;;;22.77;31.21
80629;BME280;69983;42.370;-71.210;2023-06-22T06:16:54;102367.21;;;23.37;31.31
80629;BME280;69983;42.370;-71.210;2023-06-22T06:18:55;102365.13;;;23.37;31.59
80629;BME280;69983;42.370;-71.210;2023-06-22T06:20:55;102368.33;;;23.56;31.53
80629;BME280;69983;42.370;-71.210;2023-06-22T06:22:56;102369.07;;;23.56;31.66
80629;BME280;69983;42.370;-71.210;2023-06-22T06:24:57;102370.82;;;23.74;32.04
80629;BME280;69983;42.370;-71.210;2023-06-22T06:26:57;102368.37;;;23.79;32.01
80629;BME280;69983;42.370;-71.210;2023-06-22T06:28:57;102367.01;;;23.67;31.36
80629;BME280;69983;42.370;-71.210;2023-06-22T06:30:57;102363.91;;;23.17;31.66
80629;BME280;69983;42.370;-71.210;2023-06-22T06:32:58;102364.16;;;22.87;31.04
80629;BME280;69983;42.370;-71.210;2023-06-22T06:34:59;102365.51;;;22.69;31.25
80629;BME280;69983;42.370;-71.210;2023-06-22T06:36:59;102361.48;;;22.78;31.92
80629;BME280;69983;42.370;-71.210;2023-06-22T06:39:00;102358.00;;;22.97;31.74
80629;BME280;69983;42.370;-71.210;2023-06-22T06:41:01;102356.25;;;23.90;30.67
80629;BME280;69983;42.370;-71.210;2023-06-22T06:43:01;102353.52;;;24.17;30.07
80629;BME280;69983;42.370;-71.210;2023-06-22T06:45:02;102344.10;;;24.29;29.43
80629;BME280;69983;42.370;-71.210;2023-06-22T06:47:02;102342.22;;;24.66;28.84
80629;BME280;69983;42.370;-71.210;2023-06-22T06:49:02;102340.11;;;24.83;28.53
80629;BME280;69983;42.370;-71.210;2023-06-22T06:51:03;102340.77;;;24.63;28.28
80629;BME280;69983;42.370;-71.210;2023-06-22T06:53:03;102342.85;;;25.11;27.94
80629;BME280;69983;42.370;-71.210;2023-06-22T06:55:05;102342.84;;;24.73;28.18
80629;BME280;69983;42.370;-71.210;2023-06-22T06:57:04;102336.19;;;24.80;27.77
80629;BME280;69983;42.370;-71.210;2023-06-22T06:59:04;102336.63;;;24.52;27.72
80629;BME280;69983;42.370;-71.210;2023-06-22T07:01:05;102338.26;;;24.54;27.63
80629;BME280;69983;42.370;-71.210;2023-06-22T07:03:05;102335.99;;;25.06;27.37
80629;BME280;69983;42.370;-71.210;2023-06-22T07:05:06;102336.84;;;25.06;27.28
80629;BME280;69983;42.370;-71.210;2023-06-22T07:07:06;102336.87;;;24.69;27.37
80629;BME280;69983;42.370;-71.210;2023-06-22T07:09:07;102339.00;;;25.13;27.16
80629;BME280;69983;42.370;-71.210;2023-06-22T07:11:07;102343.04;;;25.35;26.90
80629;BME280;69983;42.370;-71.210;2023-06-22T07:13:08;102345.06;;;25.24;26.99
80629;BME280;69983;42.370;-71.210;2023-06-22T07:15:09;102344.38;;;25.09;27.10
80629;BME280;69983;42.370;-71.210;2023-06-22T07:17:08;102344.38;;;24.85;26.58
80629;BME280;69983;42.370;-71.210;2023-06-22T07:19:10;102346.47;;;24.78;26.26
80629;BME280;69983;42.370;-71.210;2023-06-22T07:21:09;102348.61;;;23.94;26.75
80629;BME280;69983;42.370;-71.210;2023-06-22T07:23:09;102345.36;;;24.06;26.25
80629;BME280;69983;42.370;-71.210;2023-06-22T07:25:10;102340.67;;;24.59;26.21
80629;BME280;69983;42.370;-71.210;2023-06-22T07:27:09;102336.85;;;24.08;26.34
80629;BME280;69983;42.370;-71.210;2023-06-22T07:29:09;102331.89;;;24.78;26.03
80629;BME280;69983;42.370;-71.210;2023-06-22T07:31:09;102336.16;;;25.26;25.90
80629;BME280;69983;42.370;-71.210;2023-06-22T07:33:09;102337.12;;;25.38;25.67
80629;BME280;69983;42.370;-71.210;2023-06-22T07:35:10;102335.92;;;25.22;25.87
80629;BME280;69983;42.370;-71.210;2023-06-22T07:37:10;102334.96;;;24.68;26.36
80629;BME280;69983;42.370;-71.210;2023-06-22T07:39:09;102331.53;;;24.58;26.34
80629;BME280;69983;42.370;-71.210;2023-06-22T07:41:10;102331.51;;;25.44;26.09
80629;BME280;69983;42.370;-71.210;2023-06-22T07:43:10;102334.43;;;25.37;26.06
80629;BME280;69983;42.370;-71.210;2023-06-22T07:45:10;102330.82;;;25.24;26.23
80629;BME280;69983;42.370;-71.210;2023-06-22T07:47:10;102327.06;;;25.06;25.90
80629;BME280;69983;42.370;-71.210;2023-06-22T07:49:11;102323.63;;;24.28;25.97
80629;BME280;69983;42.370;-71.210;2023-06-22T07:51:10;102324.19;;;23.82;26.16
80629;BME280;69983;42.370;-71.210;2023-06-22T07:53:10;102323.77;;;23.33;26.41
80629;BME280;69983;42.370;-71.210;2023-06-22T07:55:10;102323.78;;;24.25;25.94
80629;BME280;69983;42.370;-71.210;2023-06-22T07:57:10;102325.76;;;24.74;25.85
80629;BME280;69983;42.370;-71.210;2023-06-22T07:59:10;102326.30;;;24.57;25.90
80629;BME280;69983;42.370;-71.210;2023-06-22T08:01:10;102324.97;;;24.70;25.86
80629;BME280;69983;42.370;-71.210;2023-06-22T08:03:11;102326.21;;;25.15;25.59
80629;BME280;69983;42.370;-71.210;2023-06-22T08:05:11;102318.35;;;24.71;26.03
80629;BME280;69983;42.370;-71.210;2023-06-22T08:07:11;102320.22;;;25.00;25.67
80629;BME280;69983;42.370;-71.210;2023-06-22T08:09:11;102325.94;;;24.96;25.78
80629;BME280;69983;42.370;-71.210;2023-06-22T08:11:11;102323.96;;;24.90;25.87
80629;BME280;69983;42.370;-71.210;2023-06-22T08:13:11;102327.02;;;24.67;25.91
80629;BME280;69983;42.370;-71.210;2023-06-22T08:15:11;102327.66;;;25.00;25.70
80629;BME280;69983;42.370;-71.210;2023-06-22T08:17:11;102326.34;;;25.23;25.75
80629;BME280;69983;42.370;-71.210;2023-06-22T08:19:11;102324.78;;;24.71;26.23
80629;BME280;69983;42.370;-71.210;2023-06-22T08:21:14;102322.52;;;25.23;26.06
80629;BME280;69983;42.370;-71.210;2023-06-22T08:23:11;102321.41;;;25.21;26.09
80629;BME280;69983;42.370;-71.210;2023-06-22T08:25:12;102323.35;;;25.15;25.96
80629;BME280;69983;42.370;-71.210;2023-06-22T08:27:12;102327.08;;;25.38;25.80
80629;BME280;69983;42.370;-71.210;2023-06-22T08:29:12;102330.48;;;24.51;26.25
80629;BME280;69983;42.370;-71.210;2023-06-22T08:31:12;102333.10;;;25.45;25.88
80629;BME280;69983;42.370;-71.210;2023-06-22T08:33:12;102330.82;;;25.64;25.99
80629;BME280;69983;42.370;-71.210;2023-06-22T08:35:12;102329.05;;;24.96;26.15
80629;BME280;69983;42.370;-71.210;2023-06-22T08:37:12;102329.26;;;24.35;26.22
80629;BME280;69983;42.370;-71.210;2023-06-22T08:39:12;102331.85;;;23.77;26.47
80629;BME280;69983;42.370;-71.210;2023-06-22T08:41:12;102336.22;;;22.76;26.69
80629;BME280;69983;42.370;-71.210;2023-06-22T08:43:13;102335.32;;;23.56;26.54
80629;BME280;69983;42.370;-71.210;2023-06-22T08:45:13;102335.04;;;23.74;26.43
80629;BME280;69983;42.370;-71.210;2023-06-22T08:47:13;102331.10;;;24.39;25.98
80629;BME280;69983;42.370;-71.210;2023-06-22T08:49:13;102331.39;;;24.59;26.07
80629;BME280;69983;42.370;-71.210;2023-06-22T08:51:13;102331.96;;;24.71;25.83
80629;BME280;69983;42.370;-71.210;2023-06-22T08:53:13;102330.47;;;24.49;25.88
80629;BME280;69983;42.370;-71.210;2023-06-22T08:55:13;102328.78;;;25.10;25.65
80629;BME280;69983;42.370;-71.210;2023-06-22T08:57:13;102328.61;;;24.59;25.90
80629;BME280;69983;42.370;-71.210;2023-06-22T08:59:13;102336.84;;;25.22;25.50
80629;BME280;69983;42.370;-71.210;2023-06-22T09:01:13;102336.19;;;24.93;25.78
80629;BME280;69983;42.370;-71.210;2023-06-22T09:03:13;102332.47;;;25.14;25.65
80629;BME280;69983;42.370;-71.210;2023-06-22T09:05:14;102332.96;;;25.09;25.72
80629;BME280;69983;42.370;-71.210;2023-06-22T09:07:14;102332.93;;;25.25;25.80
80629;BME280;69983;42.370;-71.210;2023-06-22T09:09:15;102335.39;;;25.18;25.67
80629;BME280;69983;42.370;-71.210;2023-06-22T09:11:14;102333.98;;;25.53;25.42
80629;BME280;69983;42.370;-71.210;2023-06-22T09:13:14;102331.86;;;25.32;25.65
80629;BME280;69983;42.370;-71.210;2023-06-22T09:15:15;102329.50;;;25.21;25.67
80629;BME280;69983;42.370;-71.210;2023-06-22T09:17:14;102327.73;;;23.79;26.16
80629;BME280;69983;42.370;-71.210;2023-06-22T09:19:14;102330.77;;;23.33;26.28
80629;BME280;69983;42.370;-71.210;2023-06-22T09:21:14;102330.13;;;22.91;26.68
80629;BME280;69983;42.370;-71.210;2023-06-22T09:23:14;102332.96;;;23.91;26.28
80629;BME280;69983;42.370;-71.210;2023-06-22T09:25:15;102329.52;;;24.41;25.73
80629;BME280;69983;42.370;-71.210;2023-06-22T09:27:15;102325.92;;;25.20;25.39
80629;BME280;69983;42.370;-71.210;2023-06-22T09:29:15;102327.28;;;25.31;25.36
80629;BME280;69983;42.370;-71.210;2023-06-22T09:31:15;102331.52;;;24.57;25.83
80629;BME280;69983;42.370;-71.210;2023-06-22T09:33:15;102335.41;;;24.88;25.46
80629;BME280;69983;42.370;-71.210;2023-06-22T09:35:15;102338.75;;;25.14;25.48
80629;BME280;69983;42.370;-71.210;2023-06-22T09:37:15;102342.20;;;25.52;25.41
80629;BME280;69983;42.370;-71.210;2023-06-22T09:39:15;102346.19;;;25.32;25.41
80629;BME280;69983;42.370;-71.210;2023-06-22T09:41:15;102341.81;;;24.91;25.57
80629;BME280;69983;42.370;-71.210;2023-06-22T09:43:15;102343.92;;;24.66;25.61
80629;BME280;69983;42.370;-71.210;2023-06-22T09:45:16;102348.03;;;23.93;25.77
80629;BME280;69983;42.370;-71.210;2023-06-22T09:47:15;102349.70;;;23.37;25.86
80629;BME280;69983;42.370;-71.210;2023-06-22T09:49:16;102346.44;;;23.13;26.44
80629;BME280;69983;42.370;-71.210;2023-06-22T09:51:16;102348.88;;;23.96;25.92
80629;BME280;69983;42.370;-71.210;2023-06-22T09:53:16;102346.09;;;24.47;25.59
80629;BME280;69983;42.370;-71.210;2023-06-22T09:55:16;102353.28;;;24.65;25.49
80629;BME280;69983;42.370;-71.210;2023-06-22T09:57:16;102357.22;;;24.76;25.47
80629;BME280;69983;42.370;-71.210;2023-06-22T09:59:16;102357.39;;;24.65;25.48
80629;BME280;69983;42.370;-71.210;2023-06-22T10:01:16;102360.10;;;25.11;25.15
80629;BME280;69983;42.370;-71.210;2023-06-22T10:03:16;102364.63;;;25.18;25.14
80629;BME280;69983;42.370;-71.210;2023-06-22T10:05:17;102368.12;;;25.04;25.31
80629;BME280;69983;42.370;-71.210;2023-06-22T10:07:16;102370.31;;;24.90;25.49
80629;BME280;69983;42.370;-71.210;2023-06-22T10:09:17;102370.25;;;25.07;25.20
80629;BME280;69983;42.370;-71.210;2023-06-22T10:11:17;102375.25;;;25.53;25.06
80629;BME280;69983;42.370;-71.210;2023-06-22T10:13:17;102369.36;;;24.84;25.47